Time;durP1;ratioP1;P1;durP2;ratioP2;P2;SDS_P1;SDS_P2;PMS_P1;PMS_P2;Temp;Humidity;BMP_temperature;BMP_pressure;BME280_temperature;BME280_humidity;BME280_pressure;Samples;Min_cycle;Max_cycle;Signal;HPM_P1;HPM_P2
2023/10/22 00:00:03;;;;;;;;;;;12.00;67.80;;;7.36;100.00;94675.50;5024858;28;19920;-48
2023/10/22 00:02:28;;;;;;;;;;;12.00;67.70;;;7.37;100.00;94677.88;5024185;28;19916;-49
2023/10/22 00:04:54;;;;;;;;;;;11.90;67.80;;;7.33;100.00;94687.44;5021501;28;19909;-48
2023/10/22 00:07:20;;;;;;;;;;;11.90;67.90;;;7.28;100.00;94684.78;5024757;28;19920;-49
2023/10/22 00:09:46;;;;;;;;;;;11.90;67.80;;;7.18;100.00;94677.63;5021505;28;19919;-47
2023/10/22 00:12:12;;;;;;;;;;;11.80;67.80;;;7.12;100.00;94688.47;5023986;28;20241;-47
2023/10/22 00:14:38;;;;;;;;;;;11.80;67.70;;;7.05;100.00;94688.75;5020769;28;19967;-47
2023/10/22 00:17:04;;;;;;;;;;;11.70;67.60;;;7.00;100.00;94696.69;5020402;28;19951;-47
2023/10/22 00:19:30;;;;;;;;;;;11.70;67.70;;;6.99;100.00;94699.56;5023436;28;19923;-49
2023/10/22 00:21:56;;;;;;;;;;;11.60;67.80;;;6.95;100.00;94689.50;5021408;28;19909;-46
2023/10/22 00:24:21;;;;;;;;;;;11.60;67.90;;;6.92;100.00;94691.88;5023912;28;19919;-49
2023/10/22 00:26:47;;;;;;;;;;;11.50;68.70;;;6.90;100.00;94702.75;5022155;28;20265;-46
2023/10/22 00:29:13;;;;;;;;;;;11.50;68.10;;;6.89;100.00;94695.88;5022927;28;19916;-48
2023/10/22 00:31:39;;;;;;;;;;;11.40;68.00;;;6.85;100.00;94705.38;5022338;28;19909;-50
2023/10/22 00:34:04;;;;;;;;;;;11.50;68.10;;;6.79;100.00;94708.28;5020370;28;20378;-47
2023/10/22 00:36:30;;;;;;;;;;;11.40;68.00;;;6.70;100.00;94708.78;5022669;28;19932;-45
2023/10/22 00:38:56;;;;;;;;;;;11.40;68.00;;;6.65;100.00;94708.00;5022733;28;19917;-49
2023/10/22 00:41:22;;;;;;;;;;;11.40;68.00;;;6.59;100.00;94717.78;5023556;28;20183;-48
2023/10/22 00:43:47;;;;;;;;;;;11.30;68.00;;;6.52;100.00;94719.06;5020501;28;19965;-48
2023/10/22 00:46:24;;;;;;;;;;;11.20;67.90;;;6.48;100.00;94716.13;5022389;28;19969;-47
2023/10/22 00:48:52;;;;;;;;;;;11.20;67.90;;;6.43;100.00;94718.78;5029137;28;19916;-47
2023/10/22 00:51:19;;;;;;;;;;;11.10;68.00;;;6.33;100.00;94721.34;5012070;28;19909;-50
2023/10/22 00:53:47;;;;;;;;;;;11.10;67.90;;;6.20;100.00;94715.50;5017928;28;20001;-50
2023/10/22 00:56:13;;;;;;;;;;;11.00;67.90;;;6.14;100.00;94719.19;5021168;28;20625;-49
2023/10/22 00:58:42;;;;;;;;;;;10.90;67.90;;;6.15;100.00;94717.34;5023379;28;20383;-49
2023/10/22 01:01:12;;;;;;;;;;;10.90;68.00;;;6.15;100.00;94723.41;5023141;28;19916;-49
2023/10/22 01:03:39;;;;;;;;;;;10.80;68.10;;;6.12;100.00;94721.28;5022957;28;19909;-48
2023/10/22 01:06:06;;;;;;;;;;;10.80;68.10;;;6.07;100.00;94729.19;5022961;28;20376;-50
2023/10/22 01:08:39;;;;;;;;;;;10.80;68.30;;;6.03;100.00;94720.97;5020681;28;19908;-51
2023/10/22 01:11:05;;;;;;;;;;;10.70;68.20;;;6.01;100.00;94715.13;5020264;28;20001;-48
2023/10/22 01:13:31;;;;;;;;;;;10.70;68.40;;;5.99;100.00;94717.25;5023988;28;19977;-49
2023/10/22 01:15:57;;;;;;;;;;;10.70;68.40;;;5.93;100.00;94722.78;5021647;28;19909;-46
2023/10/22 01:18:24;;;;;;;;;;;10.60;68.30;;;5.88;100.00;94725.34;5023852;28;19912;-48
2023/10/22 01:20:50;;;;;;;;;;;10.60;68.30;;;5.82;100.00;94719.22;5020793;28;19913;-47
2023/10/22 01:23:16;;;;;;;;;;;10.60;68.40;;;5.79;100.00;94725.81;5022052;28;19924;-49
2023/10/22 01:25:42;;;;;;;;;;;10.50;68.30;;;5.75;100.00;94721.31;5022452;28;19909;-50
2023/10/22 01:28:08;;;;;;;;;;;10.50;68.40;;;5.71;100.00;94718.38;5021763;28;19916;-49
2023/10/22 01:30:34;;;;;;;;;;;10.40;68.40;;;5.67;100.00;94716.47;5017539;28;19940;-47
2023/10/22 01:33:00;;;;;;;;;;;10.40;68.40;;;5.62;100.00;94727.03;5023432;28;20012;-47
2023/10/22 01:35:25;;;;;;;;;;;10.40;68.50;;;5.59;100.00;94727.53;5020382;28;19958;-49
2023/10/22 01:37:51;;;;;;;;;;;10.30;68.50;;;5.57;100.00;94727.78;5021790;28;19952;-49
2023/10/22 01:40:17;;;;;;;;;;;10.30;68.50;;;5.54;100.00;94737.00;5020901;28;20011;-47
2023/10/22 01:42:43;;;;;;;;;;;10.30;68.60;;;5.51;100.00;94742.00;5018344;28;19919;-47
2023/10/22 01:45:09;;;;;;;;;;;10.20;68.60;;;5.55;100.00;94745.75;5021845;28;20015;-47
2023/10/22 01:47:35;;;;;;;;;;;10.30;68.70;;;5.61;100.00;94741.28;5020746;28;20163;-46
2023/10/22 01:50:04;;;;;;;;;;;10.20;68.70;;;5.60;100.00;94747.63;5020470;28;19909;-46
2023/10/22 01:52:31;;;;;;;;;;;10.20;68.90;;;5.62;100.00;94748.19;5021877;28;19948;-49
2023/10/22 01:54:57;;;;;;;;;;;10.20;68.90;;;5.57;100.00;94751.56;5018011;28;20283;-47
2023/10/22 01:57:23;;;;;;;;;;;10.20;68.90;;;5.52;100.00;94757.63;5021624;28;19919;-48
2023/10/22 01:59:50;;;;;;;;;;;10.20;68.90;;;5.52;100.00;94751.53;5020598;28;19917;-54
2023/10/22 02:02:17;;;;;;;;;;;10.20;68.90;;;5.48;100.00;94750.44;5016506;28;19932;-48
2023/10/22 02:04:43;;;;;;;;;;;10.10;68.90;;;5.43;100.00;94753.06;5019893;28;20001;-48
2023/10/22 02:07:10;;;;;;;;;;;10.10;68.90;;;5.41;100.00;94761.22;5021140;28;19913;-49
2023/10/22 02:09:37;;;;;;;;;;;10.10;69.00;;;5.35;100.00;94754.28;5021612;28;19920;-53
2023/10/22 02:12:04;;;;;;;;;;;10.10;68.90;;;5.38;100.00;94761.72;5023381;28;19917;-50
2023/10/22 02:14:30;;;;;;;;;;;10.10;68.90;;;5.35;100.00;94770.13;5018097;28;20359;-50
2023/10/22 02:16:56;;;;;;;;;;;10.00;68.90;;;5.34;100.00;94772.00;5021216;28;19957;-48
2023/10/22 02:19:21;;;;;;;;;;;10.00;69.00;;;5.36;100.00;94763.00;5023043;28;19917;-46
2023/10/22 02:21:47;;;;;;;;;;;10.00;68.90;;;5.37;100.00;94769.91;5022028;28;19916;-49
2023/10/22 02:24:13;;;;;;;;;;;10.00;69.00;;;5.47;100.00;94773.41;5022477;28;19931;-47
2023/10/22 02:26:39;;;;;;;;;;;10.10;69.30;;;5.54;100.00;94779.28;5022378;28;20375;-46
2023/10/22 02:29:06;;;;;;;;;;;10.10;69.40;;;5.60;100.00;94772.19;5015860;28;19915;-47
2023/10/22 02:31:31;;;;;;;;;;;10.20;69.50;;;5.67;100.00;94787.81;5017619;28;20342;-50
2023/10/22 02:34:08;;;;;;;;;;;10.20;69.50;;;5.73;100.00;94774.41;5019033;28;19909;-46
2023/10/22 02:36:35;;;;;;;;;;;10.30;69.60;;;5.75;100.00;94779.44;5020029;28;19974;-47
2023/10/22 02:39:04;;;;;;;;;;;10.30;69.50;;;5.73;100.00;94774.41;5020288;28;20020;-45
2023/10/22 02:41:30;;;;;;;;;;;10.40;70.10;;;5.75;100.00;94774.94;5020656;28;19913;-46
2023/10/22 02:43:57;;;;;;;;;;;10.40;69.50;;;5.80;100.00;94777.63;5019098;28;19920;-47
2023/10/22 02:46:23;;;;;;;;;;;10.40;69.50;;;5.84;100.00;94782.41;5021980;28;20015;-50
2023/10/22 02:48:49;;;;;;;;;;;10.50;69.50;;;5.88;100.00;94784.28;5021640;28;19954;-47
2023/10/22 02:51:14;;;;;;;;;;;10.50;69.50;;;5.90;100.00;94790.13;5021261;28;19934;-50
2023/10/22 02:53:40;;;;;;;;;;;10.60;69.60;;;5.92;100.00;94795.97;5019605;28;19962;-48
2023/10/22 02:56:09;;;;;;;;;;;10.60;69.50;;;5.94;100.00;94795.72;5019637;28;19916;-47
2023/10/22 02:58:38;;;;;;;;;;;10.60;69.40;;;5.97;100.00;94800.50;5020635;28;19916;-50
2023/10/22 03:01:09;;;;;;;;;;;10.70;69.40;;;6.01;100.00;94802.38;5019405;28;19908;-50
2023/10/22 03:03:40;;;;;;;;;;;10.70;69.40;;;6.05;100.00;94807.16;5020885;28;20300;-49
2023/10/22 03:06:11;;;;;;;;;;;10.80;69.50;;;6.10;100.00;94802.69;5018528;28;19920;-49
2023/10/22 03:08:39;;;;;;;;;;;10.80;69.40;;;6.09;100.00;94801.13;5018919;28;19917;-50
2023/10/22 03:11:13;;;;;;;;;;;10.80;69.50;;;6.11;100.00;94806.13;5020257;28;20368;-49
2023/10/22 03:13:40;;;;;;;;;;;10.80;69.40;;;6.09;100.00;94803.75;5017845;28;20108;-49
2023/10/22 03:16:17;;;;;;;;;;;10.80;69.30;;;6.10;100.00;94804.56;5017263;28;19930;-48
2023/10/22 03:18:46;;;;;;;;;;;10.80;69.20;;;6.05;100.00;94809.81;5016486;28;19913;-49
2023/10/22 03:21:17;;;;;;;;;;;10.80;69.20;;;6.00;100.00;94810.56;5020086;28;19940;-50
2023/10/22 03:23:43;;;;;;;;;;;10.80;69.20;;;5.98;100.00;94818.75;5018905;28;19913;-48
2023/10/22 03:26:13;;;;;;;;;;;10.70;69.10;;;5.90;100.00;94813.91;5022379;28;19917;-51
2023/10/22 03:28:39;;;;;;;;;;;10.70;69.10;;;5.92;100.00;94818.94;5021191;28;19913;-48
2023/10/22 03:31:05;;;;;;;;;;;10.60;69.10;;;5.89;100.00;94820.25;5022887;28;19967;-49
2023/10/22 03:33:32;;;;;;;;;;;10.60;69.20;;;5.84;100.00;94817.56;5020359;28;20441;-51
2023/10/22 03:36:00;;;;;;;;;;;10.60;69.30;;;5.87;100.00;94824.19;5021261;28;19915;-47
2023/10/22 03:38:26;;;;;;;;;;;10.60;69.30;;;5.89;100.00;94828.19;5020080;28;19917;-50
2023/10/22 03:41:03;;;;;;;;;;;10.60;69.30;;;5.87;100.00;94830.28;5019735;28;19916;-50
2023/10/22 03:43:31;;;;;;;;;;;10.60;69.30;;;5.88;100.00;94839.78;5019979;28;20268;-47
2023/10/22 03:46:01;;;;;;;;;;;10.50;69.20;;;5.85;100.00;94842.16;5004943;28;19939;-51
2023/10/22 03:48:28;;;;;;;;;;;10.50;69.30;;;5.88;100.00;94837.16;5019260;28;19932;-49
2023/10/22 03:50:55;;;;;;;;;;;10.50;69.30;;;5.83;100.00;94847.69;5020954;28;19912;-51
2023/10/22 03:53:22;;;;;;;;;;;10.50;69.20;;;5.77;100.00;94840.78;5020814;28;19913;-48
2023/10/22 03:55:48;;;;;;;;;;;10.50;69.20;;;5.65;100.00;94842.78;5017489;28;22383;-50
2023/10/22 03:58:15;;;;;;;;;;;10.40;69.20;;;5.62;100.00;94857.28;5018977;28;19939;-47
2023/10/22 04:00:41;;;;;;;;;;;10.40;69.90;;;5.57;100.00;94847.47;5019598;28;19912;-51
2023/10/22 04:03:07;;;;;;;;;;;10.40;69.20;;;5.52;100.00;94862.50;5019848;28;19917;-45
2023/10/22 04:05:32;;;;;;;;;;;10.30;69.10;;;5.50;100.00;94861.94;5018986;28;20019;-48
2023/10/22 04:07:59;;;;;;;;;;;10.30;69.10;;;5.49;100.00;94863.78;5017256;28;19982;-48
2023/10/22 04:10:25;;;;;;;;;;;10.20;69.10;;;5.46;100.00;94869.56;5020108;28;19908;-51
2023/10/22 04:12:51;;;;;;;;;;;10.20;69.10;;;5.42;100.00;94871.13;5019873;28;19928;-54
2023/10/22 04:15:17;;;;;;;;;;;10.20;69.90;;;5.37;100.00;94875.53;5021462;28;19916;-49
2023/10/22 04:17:46;;;;;;;;;;;10.20;69.20;;;5.30;100.00;94867.81;5018866;28;19935;-48
2023/10/22 04:20:13;;;;;;;;;;;10.10;69.20;;;5.31;100.00;94870.19;5019398;28;20294;-46
2023/10/22 04:22:42;;;;;;;;;;;10.10;69.30;;;5.29;100.00;94874.13;5019967;28;19938;-47
2023/10/22 04:25:08;;;;;;;;;;;10.10;69.30;;;5.32;100.00;94873.63;5018614;28;19963;-45
2023/10/22 04:27:33;;;;;;;;;;;10.10;69.40;;;5.34;100.00;94880.25;5026953;28;20364;-45
2023/10/22 04:29:59;;;;;;;;;;;10.10;69.40;;;5.34;100.00;94885.56;5030214;28;19920;-50
2023/10/22 04:32:26;;;;;;;;;;;10.10;69.40;;;5.33;100.00;94880.53;5026708;28;20069;-45
2023/10/22 04:34:51;;;;;;;;;;;10.10;69.40;;;5.32;100.00;94876.28;5023367;28;20071;-49
2023/10/22 04:37:19;;;;;;;;;;;10.10;69.40;;;5.29;100.00;94882.84;5014764;28;19999;-51
2023/10/22 04:39:45;;;;;;;;;;;10.10;69.40;;;5.29;100.00;94887.34;5028461;28;19913;-45
2023/10/22 04:42:11;;;;;;;;;;;10.10;69.40;;;5.31;100.00;94886.03;5025885;28;20279;-45
2023/10/22 04:44:37;;;;;;;;;;;10.00;69.40;;;5.33;100.00;94883.97;5027421;28;19909;-45
2023/10/22 04:47:02;;;;;;;;;;;10.00;69.40;;;5.26;100.00;94879.91;5019774;28;20390;-46
2023/10/22 04:49:31;;;;;;;;;;;10.00;69.40;;;5.15;100.00;94879.00;5026963;28;19915;-45
2023/10/22 04:51:56;;;;;;;;;;;9.90;69.30;;;5.14;100.00;94885.34;5028874;28;19935;-45
2023/10/22 04:54:23;;;;;;;;;;;10.00;69.40;;;5.13;100.00;94877.66;5020180;28;19943;-46
2023/10/22 04:56:49;;;;;;;;;;;9.90;69.40;;;5.14;100.00;94881.88;5029447;28;19920;-47
2023/10/22 04:59:15;;;;;;;;;;;9.90;69.50;;;5.12;100.00;94884.78;5030430;28;20375;-44
2023/10/22 05:01:41;;;;;;;;;;;9.80;69.30;;;5.08;100.00;94884.47;5026777;28;19931;-44
2023/10/22 05:04:06;;;;;;;;;;;9.80;69.40;;;5.04;100.00;94882.56;5026147;28;19917;-44
2023/10/22 05:06:33;;;;;;;;;;;9.80;69.50;;;4.99;100.00;94888.59;5025910;28;19935;-51
2023/10/22 05:08:59;;;;;;;;;;;9.70;69.40;;;4.96;100.00;94889.09;5025872;28;19909;-45
2023/10/22 05:11:26;;;;;;;;;;;9.70;69.40;;;4.93;100.00;94892.22;5028054;28;20351;-45
2023/10/22 05:13:52;;;;;;;;;;;9.70;69.50;;;4.95;100.00;94899.88;5021927;28;19920;-44
2023/10/22 05:16:17;;;;;;;;;;;9.70;69.60;;;4.97;100.00;94903.88;5028240;28;19995;-46
2023/10/22 05:18:43;;;;;;;;;;;9.70;69.70;;;4.96;100.00;94904.13;5017851;28;19921;-46
2023/10/22 05:21:09;;;;;;;;;;;9.70;69.80;;;4.93;100.00;94901.97;5026961;28;19920;-45
2023/10/22 05:23:36;;;;;;;;;;;9.70;70.20;;;4.94;100.00;94903.56;5018418;28;19949;-47
2023/10/22 05:26:12;;;;;;;;;;;9.70;69.80;;;4.96;100.00;94906.78;5029526;28;19916;-51
2023/10/22 05:28:39;;;;;;;;;;;9.70;70.00;;;4.99;100.00;94901.78;5018210;28;19909;-45
2023/10/22 05:31:19;;;;;;;;;;;9.70;70.00;;;5.08;100.00;94912.72;5026474;28;20430;-45
2023/10/22 05:33:45;;;;;;;;;;;9.80;70.20;;;5.13;100.00;94912.78;5029302;28;19991;-44
2023/10/22 05:36:20;;;;;;;;;;;9.80;70.10;;;5.16;100.00;94907.00;5017065;28;20364;-48
2023/10/22 05:38:50;;;;;;;;;;;9.80;70.10;;;5.22;100.00;94918.41;5026369;28;19919;-45
2023/10/22 05:41:25;;;;;;;;;;;9.90;70.20;;;5.24;100.00;94921.63;5023677;28;20336;-51
2023/10/22 05:43:58;;;;;;;;;;;9.90;70.20;;;5.33;100.00;94920.16;5021679;28;19912;-45
2023/10/22 05:46:32;;;;;;;;;;;9.90;70.30;;;5.35;100.00;94925.97;5023585;28;19909;-45
2023/10/22 05:48:58;;;;;;;;;;;10.00;70.40;;;5.43;100.00;94930.03;5017339;28;19909;-45
2023/10/22 05:51:24;;;;;;;;;;;10.10;70.40;;;5.48;100.00;94933.50;5027283;28;19909;-45
2023/10/22 05:53:51;;;;;;;;;;;10.10;70.40;;;5.56;100.00;94929.63;5025327;28;20272;-46
2023/10/22 05:56:17;;;;;;;;;;;10.20;70.40;;;5.56;100.00;94938.34;5024523;28;20287;-45
2023/10/22 05:58:43;;;;;;;;;;;10.20;70.30;;;5.63;100.00;94946.06;5023176;28;19928;-45
2023/10/22 06:01:10;;;;;;;;;;;10.30;70.40;;;5.79;100.00;94950.47;5028316;28;19965;-45
2023/10/22 06:03:36;;;;;;;;;;;10.40;70.50;;;5.88;100.00;94952.66;5026697;28;19913;-46
2023/10/22 06:06:03;;;;;;;;;;;10.40;70.60;;;5.91;100.00;94944.22;5026031;28;19916;-50
2023/10/22 06:08:28;;;;;;;;;;;10.50;70.50;;;5.93;100.00;94961.47;5021009;28;19908;-48
2023/10/22 06:10:55;;;;;;;;;;;10.50;70.40;;;5.94;100.00;94959.63;5026975;28;20302;-45
2023/10/22 06:13:21;;;;;;;;;;;10.60;70.30;;;5.95;100.00;94966.50;5016735;28;19924;-45
2023/10/22 06:15:46;;;;;;;;;;;10.70;70.20;;;5.95;100.00;94961.22;5018354;28;19909;-52
2023/10/22 06:18:13;;;;;;;;;;;10.70;70.10;;;5.95;100.00;94959.38;5023088;28;20390;-45
2023/10/22 06:20:39;;;;;;;;;;;10.70;70.00;;;5.98;100.00;94966.00;5016386;28;19924;-48
2023/10/22 06:23:06;;;;;;;;;;;10.80;70.00;;;6.01;100.00;94971.59;5016471;28;19909;-50
2023/10/22 06:25:33;;;;;;;;;;;10.80;69.90;;;6.02;100.00;94972.41;5022341;28;20364;-51
2023/10/22 06:28:00;;;;;;;;;;;10.90;69.90;;;6.07;100.00;94971.63;5026472;28;20061;-44
2023/10/22 06:30:27;;;;;;;;;;;10.90;69.80;;;6.12;100.00;94985.72;5024481;28;19916;-45
2023/10/22 06:32:56;;;;;;;;;;;10.90;69.70;;;6.15;100.00;94989.72;5021735;28;20265;-44
2023/10/22 06:35:23;;;;;;;;;;;11.00;69.70;;;6.21;100.00;94994.78;5018143;28;19913;-44
2023/10/22 06:37:51;;;;;;;;;;;11.10;69.70;;;6.25;100.00;95001.16;5016323;28;19932;-46
2023/10/22 06:40:18;;;;;;;;;;;11.10;69.60;;;6.30;100.00;95000.44;5020398;28;20375;-50
2023/10/22 06:42:44;;;;;;;;;;;11.20;69.70;;;6.35;100.00;95005.75;5030633;28;19928;-51
2023/10/22 06:45:10;;;;;;;;;;;11.20;69.70;;;6.39;100.00;95009.50;5015434;28;19943;-48
2023/10/22 06:47:37;;;;;;;;;;;11.20;69.70;;;6.43;100.00;95010.59;5022753;28;19913;-45
2023/10/22 06:50:05;;;;;;;;;;;11.30;69.70;;;6.44;100.00;95017.47;5023240;28;19909;-44
2023/10/22 06:52:31;;;;;;;;;;;11.30;69.70;;;6.49;100.00;95022.00;5021275;28;20299;-47
2023/10/22 06:54:57;;;;;;;;;;;11.30;69.80;;;6.51;100.00;95019.91;5020692;28;19909;-48
2023/10/22 06:57:23;;;;;;;;;;;11.40;69.80;;;6.53;100.00;95020.44;5028786;28;19916;-46
2023/10/22 06:59:49;;;;;;;;;;;11.40;69.80;;;6.57;100.00;95029.47;5016989;28;19913;-46
2023/10/22 07:02:16;;;;;;;;;;;11.50;69.80;;;6.66;100.00;95035.91;5023280;28;19915;-45
2023/10/22 07:04:42;;;;;;;;;;;11.60;69.80;;;6.78;100.00;95025.13;5027608;28;20290;-44
2023/10/22 07:07:08;;;;;;;;;;;11.70;69.80;;;6.87;100.00;95025.47;5010913;28;19959;-44
2023/10/22 07:09:34;;;;;;;;;;;11.80;69.90;;;6.99;100.00;95027.91;5024644;28;19952;-44
2023/10/22 07:12:00;;;;;;;;;;;12.00;69.90;;;7.12;100.00;95033.59;5019223;28;20359;-44
2023/10/22 07:14:26;;;;;;;;;;;12.20;70.00;;;7.31;100.00;95035.81;5023574;28;19916;-44
2023/10/22 07:16:52;;;;;;;;;;;12.40;70.00;;;7.50;100.00;95036.97;5025402;28;19913;-44
2023/10/22 07:19:18;;;;;;;;;;;12.60;70.10;;;7.71;100.00;95037.84;5016164;28;19920;-48
2023/10/22 07:21:44;;;;;;;;;;;12.80;70.10;;;7.91;100.00;95038.97;5025559;28;19912;-48
2023/10/22 07:24:10;;;;;;;;;;;13.00;70.00;;;8.06;100.00;95044.34;5019304;28;20471;-45
2023/10/22 07:26:36;;;;;;;;;;;13.20;69.90;;;8.22;100.00;95035.34;5020772;28;19917;-44
2023/10/22 07:29:02;;;;;;;;;;;13.40;69.90;;;8.37;100.00;95039.88;5019617;28;20441;-49
2023/10/22 07:31:28;;;;;;;;;;;13.60;69.80;;;8.52;100.00;95039.13;5023380;28;19908;-46
2023/10/22 07:33:54;;;;;;;;;;;13.70;69.70;;;8.61;100.00;95047.34;5025075;28;20370;-46
2023/10/22 07:36:20;;;;;;;;;;;13.80;69.60;;;8.74;100.00;95042.34;5021669;28;19916;-45
2023/10/22 07:38:51;;;;;;;;;;;14.00;69.60;;;8.87;100.00;95051.63;5014103;28;19913;-49
2023/10/22 07:41:18;;;;;;;;;;;14.10;69.50;;;9.00;100.00;95053.75;5020339;28;20387;-47
2023/10/22 07:43:44;;;;;;;;;;;14.30;69.50;;;9.08;100.00;95052.41;5020344;28;19952;-51
2023/10/22 07:46:11;;;;;;;;;;;14.40;69.30;;;9.20;100.00;95047.59;5018897;28;20378;-46
2023/10/22 07:48:37;;;;;;;;;;;14.60;69.10;;;9.32;100.00;95047.31;5020071;28;20007;-51
2023/10/22 07:51:15;;;;;;;;;;;14.80;69.10;;;9.46;100.00;95053.69;5020492;28;19912;-44
2023/10/22 07:53:42;;;;;;;;;;;14.90;68.90;;;9.59;100.00;95052.31;5016262;28;19913;-45
2023/10/22 07:56:10;;;;;;;;;;;15.10;68.80;;;9.74;100.00;95056.75;5018822;28;19917;-48
2023/10/22 07:58:37;;;;;;;;;;;15.30;68.70;;;9.89;100.00;95047.94;5025102;28;20264;-46
2023/10/22 08:01:06;;;;;;;;;;;15.60;68.70;;;10.15;100.00;95059.25;5019908;28;19952;-46
2023/10/22 08:03:33;;;;;;;;;;;15.80;68.50;;;10.53;100.00;95056.94;5003701;28;19915;-52
2023/10/22 08:06:01;;;;;;;;;;;16.30;68.40;;;11.03;100.00;95062.94;5011722;28;20322;-49
2023/10/22 08:08:27;;;;;;;;;;;16.90;68.30;;;11.55;100.00;95066.72;5022219;28;19915;-45
2023/10/22 08:11:01;;;;;;;;;;;17.60;68.10;;;12.01;100.00;95068.94;5016557;28;19959;-46
2023/10/22 08:13:27;;;;;;;;;;;18.20;67.70;;;12.32;100.00;95066.66;5026449;28;19924;-45
2023/10/22 08:15:54;;;;;;;;;;;18.80;67.10;;;12.78;100.00;95062.53;5032649;28;19909;-47
2023/10/22 08:18:21;;;;;;;;;;;19.30;66.60;;;13.23;100.00;95065.56;5029583;28;20360;-49
2023/10/22 08:20:47;;;;;;;;;;;19.90;66.20;;;13.72;100.00;95061.50;5027058;28;19915;-51
2023/10/22 08:23:13;;;;;;;;;;;20.50;65.70;;;14.16;93.31;95066.25;5025535;28;19912;-49
2023/10/22 08:25:38;;;;;;;;;;;21.10;65.20;;;14.62;84.99;95061.84;5023413;28;19917;-46
2023/10/22 08:28:04;;;;;;;;;;;21.60;64.70;;;15.08;86.92;95058.88;5031459;28;19909;-46
2023/10/22 08:30:30;;;;;;;;;;;22.00;64.00;;;15.52;82.67;95065.31;5024526;28;19909;-50
2023/10/22 08:32:56;;;;;;;;;;;22.50;63.30;;;15.93;80.71;95067.72;5024167;28;20008;-47
2023/10/22 08:35:23;;;;;;;;;;;22.90;62.70;;;16.19;76.77;95065.13;5025680;28;20020;-51
2023/10/22 08:37:49;;;;;;;;;;;23.30;62.00;;;16.37;71.52;95086.66;5028223;28;19920;-48
2023/10/22 08:40:15;;;;;;;;;;;23.50;61.30;;;16.66;70.86;95070.72;5029739;28;19913;-47
2023/10/22 08:42:42;;;;;;;;;;;23.70;60.80;;;16.66;66.32;95075.31;5024679;28;20004;-45
2023/10/22 08:45:08;;;;;;;;;;;23.90;59.40;;;16.93;65.65;95086.94;5026193;28;19917;-49
2023/10/22 08:47:37;;;;;;;;;;;24.00;58.70;;;16.98;63.47;95084.06;5029044;28;19909;-52
2023/10/22 08:50:05;;;;;;;;;;;24.10;57.80;;;16.86;64.71;95088.19;5026847;28;19909;-45
2023/10/22 08:52:33;;;;;;;;;;;24.10;56.80;;;17.08;63.41;95092.63;5025702;28;19916;-45
2023/10/22 08:54:59;;;;;;;;;;;24.10;56.70;;;17.17;61.35;95079.13;5025417;28;19913;-46
2023/10/22 08:57:26;;;;;;;;;;;24.10;56.70;;;17.00;62.93;95082.63;5019481;28;19963;-44
2023/10/22 08:59:51;;;;;;;;;;;24.20;56.80;;;17.04;63.84;95090.88;5025071;28;19924;-47
2023/10/22 09:02:21;;;;;;;;;;;24.30;56.20;;;17.19;61.29;95086.91;5027417;28;20279;-51
2023/10/22 09:04:47;;;;;;;;;;;24.30;56.00;;;17.27;60.90;95094.19;5024713;28;19908;-55
2023/10/22 09:07:13;;;;;;;;;;;24.30;56.40;;;17.04;59.26;95099.72;5033092;28;19908;-46
2023/10/22 09:09:40;;;;;;;;;;;24.20;56.40;;;16.96;60.67;95094.38;5027432;28;19932;-44
2023/10/22 09:12:10;;;;;;;;;;;23.90;56.50;;;16.74;61.28;95096.06;5026659;28;20370;-44
2023/10/22 09:14:37;;;;;;;;;;;23.60;56.50;;;16.78;61.89;95088.19;5023487;28;19962;-45
2023/10/22 09:17:19;;;;;;;;;;;23.60;56.60;;;17.05;59.43;95085.19;4974650;28;24311;-50
2023/10/22 09:19:47;;;;;;;;;;;23.70;56.20;;;16.85;60.06;95086.59;5019829;28;19916;-44
2023/10/22 09:22:26;;;;;;;;;;;23.80;56.30;;;16.63;61.06;95089.38;5024543;28;20015;-45
2023/10/22 09:24:57;;;;;;;;;;;23.60;56.30;;;16.79;61.14;95085.16;5031809;28;20379;-45
2023/10/22 09:27:29;;;;;;;;;;;23.50;55.90;;;17.01;60.10;95086.13;5026705;28;20034;-47
2023/10/22 09:29:58;;;;;;;;;;;23.80;55.70;;;17.19;57.71;95085.00;5032018;28;19915;-48
2023/10/22 09:32:25;;;;;;;;;;;24.00;55.60;;;17.01;58.00;95089.59;5028335;28;19909;-46
2023/10/22 09:34:52;;;;;;;;;;;23.90;55.20;;;17.04;57.33;95094.34;5025414;28;20014;-46
2023/10/22 09:37:18;;;;;;;;;;;24.00;54.80;;;16.95;58.11;95088.16;5011942;28;20326;-45
2023/10/22 09:39:45;;;;;;;;;;;23.90;54.20;;;17.16;58.31;95093.72;5015798;28;19921;-45
2023/10/22 09:42:13;;;;;;;;;;;24.10;53.60;;;17.55;56.85;95095.41;5020155;28;19920;-46
2023/10/22 09:44:43;;;;;;;;;;;24.40;53.30;;;17.52;55.75;95096.03;5012045;28;19916;-45
2023/10/22 09:47:13;;;;;;;;;;;24.70;53.10;;;17.17;57.91;95095.28;5028755;28;19919;-45
2023/10/22 09:49:48;;;;;;;;;;;24.50;52.30;;;17.07;57.03;95088.31;5020018;28;19935;-45
2023/10/22 09:52:17;;;;;;;;;;;24.40;52.50;;;17.41;57.54;95088.63;5020437;28;20047;-49
2023/10/22 09:54:45;;;;;;;;;;;24.60;52.30;;;17.60;55.08;95089.03;5026932;28;20019;-45
2023/10/22 09:57:17;;;;;;;;;;;24.60;52.30;;;17.70;55.32;95096.00;5031885;28;19917;-45
2023/10/22 09:59:45;;;;;;;;;;;24.60;52.20;;;17.63;57.07;95099.19;5038501;23;21361;-50
2023/10/22 10:02:16;;;;;;;;;;;24.30;52.10;;;17.38;54.95;95103.50;4989524;28;19953;-51
2023/10/22 10:04:48;;;;;;;;;;;24.20;51.70;;;17.77;54.66;95105.19;4987183;28;19972;-48
2023/10/22 10:07:14;;;;;;;;;;;24.50;51.80;;;18.04;54.48;95114.75;4994829;28;20386;-50
2023/10/22 10:09:42;;;;;;;;;;;24.70;51.90;;;18.13;54.87;95111.25;4991107;28;19910;-48
2023/10/22 10:12:08;;;;;;;;;;;24.80;51.90;;;18.31;52.91;95115.44;4992414;28;20360;-50
2023/10/22 10:14:45;;;;;;;;;;;24.90;51.80;;;18.18;53.87;95124.56;4991883;28;19917;-48
2023/10/22 10:17:13;;;;;;;;;;;24.80;51.60;;;18.22;53.49;95120.09;4989628;28;19952;-49
2023/10/22 10:19:39;;;;;;;;;;;25.00;51.50;;;18.00;53.17;95116.53;4987159;28;20350;-48
2023/10/22 10:22:06;;;;;;;;;;;24.90;50.90;;;17.90;53.81;95110.72;4992066;28;19936;-51
2023/10/22 10:24:33;;;;;;;;;;;24.80;50.60;;;17.64;54.33;95110.72;4992459;28;19914;-52
2023/10/22 10:26:58;;;;;;;;;;;24.50;50.50;;;17.48;54.41;95107.75;4988729;28;19909;-54
2023/10/22 10:29:31;;;;;;;;;;;24.30;50.50;;;17.14;56.15;95105.91;4991727;28;19956;-48
2023/10/22 10:32:12;;;;;;;;;;;24.00;50.50;;;17.10;56.59;95114.59;4988905;28;19909;-51
2023/10/22 10:34:44;;;;;;;;;;;23.80;50.60;;;17.05;56.47;95109.41;4986434;28;19948;-48
2023/10/22 10:37:13;;;;;;;;;;;23.60;50.60;;;16.99;56.19;95102.59;4992500;28;19956;-51
2023/10/22 10:39:42;;;;;;;;;;;23.60;50.40;;;16.83;57.00;95096.88;4989659;28;19959;-55
2023/10/22 10:42:10;;;;;;;;;;;23.80;50.50;;;17.23;55.48;95096.69;4992078;28;20428;-52
2023/10/22 10:44:57;;;;;;;;;;;24.30;50.60;;;17.75;56.74;95091.22;4990742;28;20356;-55
2023/10/22 10:47:30;;;;;;;;;;;24.80;50.30;;;18.07;54.88;95091.78;4992230;28;20307;-51
2023/10/22 10:50:11;;;;;;;;;;;25.30;50.40;;;18.44;54.46;95094.75;5003983;28;19948;-52
2023/10/22 10:52:43;;;;;;;;;;;25.80;49.60;;;18.82;54.81;95100.09;4992079;28;20356;-55
2023/10/22 10:55:32;;;;;;;;;;;26.40;48.80;;;19.35;52.55;95095.06;4991447;28;19944;-57
2023/10/22 10:58:01;;;;;;;;;;;26.90;49.00;;;19.64;51.69;95100.38;4989934;28;19909;-52
2023/10/22 11:00:31;;;;;;;;;;;27.20;48.90;;;19.52;49.04;95096.81;4988716;28;20320;-56
2023/10/22 11:03:07;;;;;;;;;;;27.20;48.70;;;19.32;50.24;95101.91;4991026;28;19909;-54
2023/10/22 11:05:37;;;;;;;;;;;27.00;47.90;;;19.36;50.30;95104.75;4991698;28;19947;-52
2023/10/22 11:08:18;;;;;;;;;;;27.00;47.80;;;19.46;48.99;95107.06;4991158;28;19910;-52
2023/10/22 11:10:45;;;;;;;;;;;27.00;47.70;;;19.40;50.41;95100.28;4991478;28;19910;-49
2023/10/22 11:13:11;;;;;;;;;;;27.10;47.70;;;19.21;47.93;95094.56;4991826;28;19909;-51
2023/10/22 11:15:40;;;;;;;;;;;27.00;47.70;;;18.64;47.68;95098.59;4991026;28;20047;-48
2023/10/22 11:18:09;;;;;;;;;;;26.70;47.30;;;18.29;48.99;95100.72;4991603;28;20004;-52